sensor_id;sensor_type;location;lat;lon;timestamp;P1;durP1;ratioP1;P2;durP2;ratioP2
15553;SDS011;7878;44.632;10.942;2023-03-01T00:02:06;16.07;;;10.73;;
15553;SDS011;7878;44.632;10.942;2023-03-01T00:04:32;18.00;;;11.07;;
15553;SDS011;7878;44.632;10.942;2023-03-01T00:06:57;17.20;;;10.33;;
15553;SDS011;7878;44.632;10.942;2023-03-01T00:09:23;14.17;;;11.37;;
15553;SDS011;7878;44.632;10.942;2023-03-01T00:11:49;17.13;;;11.80;;
15553;SDS011;7878;44.632;10.942;2023-03-01T00:14:15;19.47;;;11.90;;
15553;SDS011;7878;44.632;10.942;2023-03-01T00:16:44;20.30;;;11.87;;
15553;SDS011;7878;44.632;10.942;2023-03-01T00:19:11;17.80;;;11.50;;
15553;SDS011;7878;44.632;10.942;2023-03-01T00:21:38;20.17;;;12.00;;
15553;SDS011;7878;44.632;10.942;2023-03-01T00:24:05;16.83;;;12.00;;
15553;SDS011;7878;44.632;10.942;2023-03-01T00:26:31;15.77;;;11.20;;
15553;SDS011;7878;44.632;10.942;2023-03-01T00:28:57;19.43;;;11.67;;
15553;SDS011;7878;44.632;10.942;2023-03-01T00:31:24;16.93;;;11.43;;
15553;SDS011;7878;44.632;10.942;2023-03-01T00:33:53;17.77;;;11.70;;
15553;SDS011;7878;44.632;10.942;2023-03-01T00:36:23;18.50;;;12.20;;
15553;SDS011;7878;44.632;10.942;2023-03-01T00:38:50;16.90;;;12.60;;
15553;SDS011;7878;44.632;10.942;2023-03-01T00:41:17;17.33;;;11.90;;
15553;SDS011;7878;44.632;10.942;2023-03-01T00:43:47;17.73;;;11.90;;
15553;SDS011;7878;44.632;10.942;2023-03-01T00:46:15;16.43;;;11.93;;
15553;SDS011;7878;44.632;10.942;2023-03-01T00:48:42;15.80;;;11.73;;
15553;SDS011;7878;44.632;10.942;2023-03-01T00:51:09;15.90;;;11.27;;
15553;SDS011;7878;44.632;10.942;2023-03-01T00:53:37;16.73;;;12.10;;
15553;SDS011;7878;44.632;10.942;2023-03-01T00:56:03;15.03;;;11.40;;
15553;SDS011;7878;44.632;10.942;2023-03-01T00:58:31;17.40;;;11.73;;
15553;SDS011;7878;44.632;10.942;2023-03-01T01:00:58;18.27;;;12.10;;
15553;SDS011;7878;44.632;10.942;2023-03-01T01:03:24;19.57;;;11.40;;
15553;SDS011;7878;44.632;10.942;2023-03-01T01:05:50;19.10;;;11.33;;
15553;SDS011;7878;44.632;10.942;2023-03-01T01:08:17;15.20;;;10.70;;
15553;SDS011;7878;44.632;10.942;2023-03-01T01:10:44;18.73;;;12.40;;
15553;SDS011;7878;44.632;10.942;2023-03-01T01:13:10;16.43;;;12.47;;
15553;SDS011;7878;44.632;10.942;2023-03-01T01:15:36;15.93;;;11.03;;
15553;SDS011;7878;44.632;10.942;2023-03-01T01:18:02;16.63;;;11.37;;
15553;SDS011;7878;44.632;10.942;2023-03-01T01:20:28;20.07;;;12.20;;
15553;SDS011;7878;44.632;10.942;2023-03-01T01:22:54;16.73;;;11.63;;
15553;SDS011;7878;44.632;10.942;2023-03-01T01:25:20;14.83;;;11.70;;
15553;SDS011;7878;44.632;10.942;2023-03-01T01:27:46;17.50;;;11.40;;
15553;SDS011;7878;44.632;10.942;2023-03-01T01:30:11;19.77;;;11.87;;
15553;SDS011;7878;44.632;10.942;2023-03-01T01:32:38;15.50;;;11.33;;
15553;SDS011;7878;44.632;10.942;2023-03-01T01:35:04;16.23;;;12.43;;
15553;SDS011;7878;44.632;10.942;2023-03-01T01:37:30;15.97;;;11.17;;
15553;SDS011;7878;44.632;10.942;2023-03-01T01:39:58;17.07;;;12.20;;
15553;SDS011;7878;44.632;10.942;2023-03-01T01:42:31;15.30;;;11.30;;
15553;SDS011;7878;44.632;10.942;2023-03-01T01:48:10;17.53;;;11.60;;
15553;SDS011;7878;44.632;10.942;2023-03-01T01:50:39;14.93;;;11.57;;
15553;SDS011;7878;44.632;10.942;2023-03-01T01:53:07;14.53;;;10.70;;
15553;SDS011;7878;44.632;10.942;2023-03-01T01:55:39;16.20;;;11.13;;
15553;SDS011;7878;44.632;10.942;2023-03-01T01:58:08;12.90;;;10.57;;
15553;SDS011;7878;44.632;10.942;2023-03-01T02:00:36;15.03;;;12.10;;
15553;SDS011;7878;44.632;10.942;2023-03-01T02:03:12;15.27;;;10.43;;
15553;SDS011;7878;44.632;10.942;2023-03-01T02:08:53;14.47;;;11.07;;
15553;SDS011;7878;44.632;10.942;2023-03-01T02:11:23;16.90;;;12.13;;
15553;SDS011;7878;44.632;10.942;2023-03-01T02:13:51;15.20;;;10.67;;
15553;SDS011;7878;44.632;10.942;2023-03-01T02:16:19;14.87;;;11.63;;
15553;SDS011;7878;44.632;10.942;2023-03-01T02:18:45;16.07;;;11.07;;
15553;SDS011;7878;44.632;10.942;2023-03-01T02:23:42;17.53;;;11.33;;
15553;SDS011;7878;44.632;10.942;2023-03-01T02:26:13;16.30;;;11.70;;
15553;SDS011;7878;44.632;10.942;2023-03-01T02:28:45;16.73;;;12.27;;
15553;SDS011;7878;44.632;10.942;2023-03-01T02:31:14;17.30;;;12.03;;
15553;SDS011;7878;44.632;10.942;2023-03-01T02:34:00;17.57;;;11.03;;
15553;SDS011;7878;44.632;10.942;2023-03-01T02:36:30;16.00;;;12.20;;
15553;SDS011;7878;44.632;10.942;2023-03-01T02:38:59;15.50;;;11.50;;
15553;SDS011;7878;44.632;10.942;2023-03-01T02:41:28;17.67;;;12.63;;
15553;SDS011;7878;44.632;10.942;2023-03-01T02:43:59;14.20;;;11.50;;
15553;SDS011;7878;44.632;10.942;2023-03-01T02:46:25;18.03;;;11.70;;
15553;SDS011;7878;44.632;10.942;2023-03-01T02:51:25;19.13;;;13.47;;
15553;SDS011;7878;44.632;10.942;2023-03-01T02:56:53;14.93;;;11.33;;
15553;SDS011;7878;44.632;10.942;2023-03-01T02:59:22;20.20;;;11.90;;
15553;SDS011;7878;44.632;10.942;2023-03-01T03:01:51;17.33;;;12.17;;
15553;SDS011;7878;44.632;10.942;2023-03-01T03:04:18;18.23;;;12.80;;
15553;SDS011;7878;44.632;10.942;2023-03-01T03:06:46;21.77;;;12.97;;
15553;SDS011;7878;44.632;10.942;2023-03-01T03:09:13;19.20;;;13.37;;
15553;SDS011;7878;44.632;10.942;2023-03-01T03:11:39;17.57;;;13.10;;
15553;SDS011;7878;44.632;10.942;2023-03-01T03:14:08;20.40;;;12.17;;
15553;SDS011;7878;44.632;10.942;2023-03-01T03:16:45;15.07;;;11.33;;
15553;SDS011;7878;44.632;10.942;2023-03-01T03:19:12;17.97;;;12.17;;
15553;SDS011;7878;44.632;10.942;2023-03-01T03:21:39;17.07;;;12.40;;
15553;SDS011;7878;44.632;10.942;2023-03-01T03:24:04;16.43;;;12.13;;
15553;SDS011;7878;44.632;10.942;2023-03-01T03:26:31;14.63;;;11.70;;
15553;SDS011;7878;44.632;10.942;2023-03-01T03:28:57;19.90;;;12.27;;
15553;SDS011;7878;44.632;10.942;2023-03-01T03:31:23;15.90;;;11.90;;
15553;SDS011;7878;44.632;10.942;2023-03-01T03:33:49;22.33;;;12.17;;
15553;SDS011;7878;44.632;10.942;2023-03-01T03:36:15;19.97;;;11.43;;
15553;SDS011;7878;44.632;10.942;2023-03-01T03:38:43;14.73;;;11.70;;
15553;SDS011;7878;44.632;10.942;2023-03-01T03:41:09;17.33;;;12.30;;
15553;SDS011;7878;44.632;10.942;2023-03-01T03:43:36;17.33;;;12.33;;
15553;SDS011;7878;44.632;10.942;2023-03-01T03:46:03;17.67;;;11.50;;
15553;SDS011;7878;44.632;10.942;2023-03-01T03:48:38;15.43;;;11.67;;
15553;SDS011;7878;44.632;10.942;2023-03-01T03:51:05;15.57;;;11.60;;
15553;SDS011;7878;44.632;10.942;2023-03-01T03:53:32;16.03;;;11.93;;
15553;SDS011;7878;44.632;10.942;2023-03-01T03:55:57;17.63;;;11.83;;
15553;SDS011;7878;44.632;10.942;2023-03-01T03:58:24;14.43;;;11.23;;
15553;SDS011;7878;44.632;10.942;2023-03-01T04:00:51;18.13;;;12.40;;
15553;SDS011;7878;44.632;10.942;2023-03-01T04:03:20;16.37;;;11.50;;
15553;SDS011;7878;44.632;10.942;2023-03-01T04:05:47;17.93;;;11.87;;
15553;SDS011;7878;44.632;10.942;2023-03-01T04:08:15;18.73;;;11.93;;
15553;SDS011;7878;44.632;10.942;2023-03-01T04:10:44;16.97;;;12.20;;
15553;SDS011;7878;44.632;10.942;2023-03-01T04:13:13;17.23;;;12.03;;
15553;SDS011;7878;44.632;10.942;2023-03-01T04:15:41;15.33;;;11.20;;
15553;SDS011;7878;44.632;10.942;2023-03-01T04:18:13;15.83;;;11.13;;
15553;SDS011;7878;44.632;10.942;2023-03-01T04:20:40;25.00;;;12.30;;
15553;SDS011;7878;44.632;10.942;2023-03-01T04:23:08;20.73;;;12.73;;
15553;SDS011;7878;44.632;10.942;2023-03-01T04:25:57;14.53;;;12.17;;
15553;SDS011;7878;44.632;10.942;2023-03-01T04:28:24;14.57;;;11.60;;
15553;SDS011;7878;44.632;10.942;2023-03-01T04:30:53;16.07;;;12.50;;
15553;SDS011;7878;44.632;10.942;2023-03-01T04:33:19;19.03;;;12.60;;
15553;SDS011;7878;44.632;10.942;2023-03-01T04:35:46;18.13;;;13.20;;
15553;SDS011;7878;44.632;10.942;2023-03-01T04:38:14;18.37;;;12.70;;
15553;SDS011;7878;44.632;10.942;2023-03-01T04:40:44;16.17;;;11.47;;
15553;SDS011;7878;44.632;10.942;2023-03-01T04:43:10;16.57;;;11.77;;
15553;SDS011;7878;44.632;10.942;2023-03-01T04:45:38;21.53;;;12.77;;
15553;SDS011;7878;44.632;10.942;2023-03-01T04:48:04;16.57;;;12.07;;
15553;SDS011;7878;44.632;10.942;2023-03-01T04:50:30;16.33;;;11.73;;
15553;SDS011;7878;44.632;10.942;2023-03-01T04:52:56;15.77;;;10.87;;
15553;SDS011;7878;44.632;10.942;2023-03-01T04:55:24;15.80;;;11.90;;
15553;SDS011;7878;44.632;10.942;2023-03-01T04:57:53;17.30;;;12.00;;
15553;SDS011;7878;44.632;10.942;2023-03-01T05:00:20;14.87;;;11.50;;
15553;SDS011;7878;44.632;10.942;2023-03-01T05:02:51;15.67;;;11.30;;
15553;SDS011;7878;44.632;10.942;2023-03-01T05:05:22;17.20;;;11.30;;
15553;SDS011;7878;44.632;10.942;2023-03-01T05:07:51;19.00;;;12.80;;
15553;SDS011;7878;44.632;10.942;2023-03-01T05:10:21;17.30;;;11.73;;
15553;SDS011;7878;44.632;10.942;2023-03-01T05:12:47;16.87;;;11.47;;
15553;SDS011;7878;44.632;10.942;2023-03-01T05:15:13;18.87;;;12.83;;
15553;SDS011;7878;44.632;10.942;2023-03-01T05:17:39;16.70;;;11.73;;
15553;SDS011;7878;44.632;10.942;2023-03-01T05:20:05;19.47;;;12.40;;
15553;SDS011;7878;44.632;10.942;2023-03-01T05:22:34;14.70;;;11.13;;
15553;SDS011;7878;44.632;10.942;2023-03-01T05:25:00;18.80;;;12.20;;
15553;SDS011;7878;44.632;10.942;2023-03-01T05:27:26;24.60;;;17.43;;
15553;SDS011;7878;44.632;10.942;2023-03-01T05:29:52;18.07;;;12.40;;
15553;SDS011;7878;44.632;10.942;2023-03-01T05:32:17;17.00;;;11.83;;
15553;SDS011;7878;44.632;10.942;2023-03-01T05:34:43;16.27;;;12.40;;
15553;SDS011;7878;44.632;10.942;2023-03-01T05:37:11;15.63;;;11.70;;
15553;SDS011;7878;44.632;10.942;2023-03-01T05:39:37;18.90;;;11.97;;
15553;SDS011;7878;44.632;10.942;2023-03-01T05:42:03;18.30;;;12.70;;
15553;SDS011;7878;44.632;10.942;2023-03-01T05:44:28;18.37;;;12.40;;
15553;SDS011;7878;44.632;10.942;2023-03-01T05:46:55;18.63;;;12.87;;
15553;SDS011;7878;44.632;10.942;2023-03-01T05:49:21;19.03;;;12.37;;
15553;SDS011;7878;44.632;10.942;2023-03-01T05:51:51;18.20;;;13.07;;
15553;SDS011;7878;44.632;10.942;2023-03-01T05:54:19;17.73;;;11.90;;
15553;SDS011;7878;44.632;10.942;2023-03-01T05:56:45;16.50;;;11.97;;
15553;SDS011;7878;44.632;10.942;2023-03-01T05:59:11;16.67;;;12.73;;
15553;SDS011;7878;44.632;10.942;2023-03-01T06:01:38;25.10;;;13.17;;
15553;SDS011;7878;44.632;10.942;2023-03-01T06:04:04;21.53;;;13.87;;
15553;SDS011;7878;44.632;10.942;2023-03-01T06:06:33;18.37;;;12.93;;
15553;SDS011;7878;44.632;10.942;2023-03-01T06:08:59;18.73;;;12.37;;
15553;SDS011;7878;44.632;10.942;2023-03-01T06:11:25;21.30;;;12.57;;
15553;SDS011;7878;44.632;10.942;2023-03-01T06:13:51;15.33;;;12.67;;
15553;SDS011;7878;44.632;10.942;2023-03-01T06:16:16;17.73;;;13.33;;
15553;SDS011;7878;44.632;10.942;2023-03-01T06:18:42;20.07;;;12.70;;
15553;SDS011;7878;44.632;10.942;2023-03-01T06:21:08;18.40;;;12.57;;
15553;SDS011;7878;44.632;10.942;2023-03-01T06:23:34;17.90;;;13.03;;
15553;SDS011;7878;44.632;10.942;2023-03-01T06:26:00;20.23;;;12.63;;
15553;SDS011;7878;44.632;10.942;2023-03-01T06:28:30;18.27;;;12.67;;
15553;SDS011;7878;44.632;10.942;2023-03-01T06:30:56;16.00;;;12.67;;
15553;SDS011;7878;44.632;10.942;2023-03-01T06:33:22;23.93;;;14.87;;
15553;SDS011;7878;44.632;10.942;2023-03-01T06:35:49;15.60;;;12.17;;
15553;SDS011;7878;44.632;10.942;2023-03-01T06:38:15;18.63;;;13.80;;
15553;SDS011;7878;44.632;10.942;2023-03-01T06:40:43;19.10;;;13.00;;
15553;SDS011;7878;44.632;10.942;2023-03-01T06:43:09;19.57;;;13.57;;
15553;SDS011;7878;44.632;10.942;2023-03-01T06:45:35;21.27;;;13.97;;
15553;SDS011;7878;44.632;10.942;2023-03-01T06:48:05;20.27;;;13.67;;
15553;SDS011;7878;44.632;10.942;2023-03-01T06:50:32;19.37;;;12.80;;
15553;SDS011;7878;44.632;10.942;2023-03-01T06:52:59;20.93;;;12.77;;
15553;SDS011;7878;44.632;10.942;2023-03-01T06:55:25;19.77;;;12.43;;
15553;SDS011;7878;44.632;10.942;2023-03-01T06:58:01;17.33;;;12.30;;
15553;SDS011;7878;44.632;10.942;2023-03-01T07:00:27;17.97;;;12.57;;
15553;SDS011;7878;44.632;10.942;2023-03-01T07:02:53;17.23;;;11.97;;
15553;SDS011;7878;44.632;10.942;2023-03-01T07:05:19;19.30;;;12.63;;
15553;SDS011;7878;44.632;10.942;2023-03-01T07:07:45;19.17;;;12.70;;
15553;SDS011;7878;44.632;10.942;2023-03-01T07:10:11;18.03;;;13.17;;
15553;SDS011;7878;44.632;10.942;2023-03-01T07:12:37;19.17;;;13.43;;
15553;SDS011;7878;44.632;10.942;2023-03-01T07:15:03;18.50;;;12.87;;
15553;SDS011;7878;44.632;10.942;2023-03-01T07:17:30;15.50;;;11.67;;
15553;SDS011;7878;44.632;10.942;2023-03-01T07:19:56;16.13;;;12.30;;
15553;SDS011;7878;44.632;10.942;2023-03-01T07:22:21;18.80;;;13.07;;
15553;SDS011;7878;44.632;10.942;2023-03-01T07:24:47;19.07;;;12.23;;
15553;SDS011;7878;44.632;10.942;2023-03-01T07:27:13;17.87;;;12.17;;
15553;SDS011;7878;44.632;10.942;2023-03-01T07:29:38;19.13;;;12.40;;
15553;SDS011;7878;44.632;10.942;2023-03-01T07:32:04;21.00;;;12.80;;
15553;SDS011;7878;44.632;10.942;2023-03-01T07:34:30;20.53;;;12.97;;
15553;SDS011;7878;44.632;10.942;2023-03-01T07:36:56;19.23;;;12.50;;
15553;SDS011;7878;44.632;10.942;2023-03-01T07:39:22;21.30;;;12.80;;
15553;SDS011;7878;44.632;10.942;2023-03-01T07:41:49;16.90;;;12.20;;
15553;SDS011;7878;44.632;10.942;2023-03-01T07:44:15;19.93;;;13.03;;
15553;SDS011;7878;44.632;10.942;2023-03-01T07:46:42;17.20;;;12.13;;
15553;SDS011;7878;44.632;10.942;2023-03-01T07:49:08;22.83;;;12.57;;
15553;SDS011;7878;44.632;10.942;2023-03-01T07:51:34;20.73;;;12.70;;
15553;SDS011;7878;44.632;10.942;2023-03-01T07:53:59;18.73;;;12.80;;
15553;SDS011;7878;44.632;10.942;2023-03-01T07:56:25;23.90;;;13.57;;
15553;SDS011;7878;44.632;10.942;2023-03-01T07:58:51;23.13;;;13.43;;
15553;SDS011;7878;44.632;10.942;2023-03-01T08:01:17;20.67;;;14.70;;
15553;SDS011;7878;44.632;10.942;2023-03-01T08:03:44;21.07;;;15.50;;
15553;SDS011;7878;44.632;10.942;2023-03-01T08:06:10;20.87;;;15.40;;
15553;SDS011;7878;44.632;10.942;2023-03-01T08:08:37;20.67;;;14.80;;
15553;SDS011;7878;44.632;10.942;2023-03-01T08:11:04;21.30;;;14.93;;
15553;SDS011;7878;44.632;10.942;2023-03-01T08:13:31;23.70;;;15.53;;
15553;SDS011;7878;44.632;10.942;2023-03-01T08:16:01;20.90;;;15.67;;
15553;SDS011;7878;44.632;10.942;2023-03-01T08:18:31;20.47;;;14.20;;
15553;SDS011;7878;44.632;10.942;2023-03-01T08:21:07;22.03;;;15.20;;
15553;SDS011;7878;44.632;10.942;2023-03-01T08:23:35;19.13;;;14.53;;
15553;SDS011;7878;44.632;10.942;2023-03-01T08:26:05;22.23;;;16.10;;
15553;SDS011;7878;44.632;10.942;2023-03-01T08:28:32;20.03;;;15.00;;
15553;SDS011;7878;44.632;10.942;2023-03-01T08:30:58;21.00;;;14.47;;
15553;SDS011;7878;44.632;10.942;2023-03-01T08:33:23;21.77;;;15.43;;
15553;SDS011;7878;44.632;10.942;2023-03-01T08:35:49;24.50;;;15.93;;
15553;SDS011;7878;44.632;10.942;2023-03-01T08:38:14;24.13;;;15.90;;
15553;SDS011;7878;44.632;10.942;2023-03-01T08:40:40;25.47;;;16.53;;
15553;SDS011;7878;44.632;10.942;2023-03-01T08:43:06;23.30;;;15.53;;
15553;SDS011;7878;44.632;10.942;2023-03-01T08:45:31;24.07;;;16.50;;
15553;SDS011;7878;44.632;10.942;2023-03-01T08:47:57;24.73;;;16.97;;
15553;SDS011;7878;44.632;10.942;2023-03-01T08:50:23;23.07;;;17.17;;
15553;SDS011;7878;44.632;10.942;2023-03-01T08:52:49;24.83;;;16.97;;
15553;SDS011;7878;44.632;10.942;2023-03-01T08:55:15;28.83;;;18.23;;
15553;SDS011;7878;44.632;10.942;2023-03-01T08:57:42;23.27;;;17.20;;
15553;SDS011;7878;44.632;10.942;2023-03-01T09:00:09;23.77;;;17.20;;
15553;SDS011;7878;44.632;10.942;2023-03-01T09:02:36;25.10;;;17.83;;
15553;SDS011;7878;44.632;10.942;2023-03-01T09:05:02;24.10;;;16.93;;
15553;SDS011;7878;44.632;10.942;2023-03-01T09:07:28;23.87;;;16.87;;
15553;SDS011;7878;44.632;10.942;2023-03-01T09:09:54;26.13;;;19.47;;
15553;SDS011;7878;44.632;10.942;2023-03-01T09:12:20;28.70;;;19.33;;
15553;SDS011;7878;44.632;10.942;2023-03-01T09:14:46;26.70;;;20.33;;
15553;SDS011;7878;44.632;10.942;2023-03-01T09:17:11;30.33;;;20.97;;
15553;SDS011;7878;44.632;10.942;2023-03-01T09:19:37;28.63;;;22.33;;
15553;SDS011;7878;44.632;10.942;2023-03-01T09:22:03;28.73;;;21.50;;
15553;SDS011;7878;44.632;10.942;2023-03-01T09:24:29;30.33;;;21.67;;
15553;SDS011;7878;44.632;10.942;2023-03-01T09:26:55;28.00;;;21.17;;
15553;SDS011;7878;44.632;10.942;2023-03-01T09:29:21;29.90;;;20.60;;
15553;SDS011;7878;44.632;10.942;2023-03-01T09:31:47;28.67;;;20.43;;
15553;SDS011;7878;44.632;10.942;2023-03-01T09:34:12;28.67;;;20.33;;
15553;SDS011;7878;44.632;10.942;2023-03-01T09:36:41;29.43;;;20.67;;
15553;SDS011;7878;44.632;10.942;2023-03-01T09:39:07;26.93;;;17.60;;
15553;SDS011;7878;44.632;10.942;2023-03-01T09:41:38;27.43;;;19.13;;
15553;SDS011;7878;44.632;10.942;2023-03-01T09:46:56;25.30;;;18.27;;
15553;SDS011;7878;44.632;10.942;2023-03-01T09:49:25;25.87;;;17.50;;
15553;SDS011;7878;44.632;10.942;2023-03-01T09:52:21;22.10;;;16.33;;
15553;SDS011;7878;44.632;10.942;2023-03-01T09:54:57;26.37;;;17.47;;
15553;SDS011;7878;44.632;10.942;2023-03-01T09:57:28;22.93;;;16.90;;
15553;SDS011;7878;44.632;10.942;2023-03-01T10:00:16;24.57;;;15.60;;
15553;SDS011;7878;44.632;10.942;2023-03-01T10:03:00;23.30;;;17.23;;
15553;SDS011;7878;44.632;10.942;2023-03-01T10:05:43;23.30;;;16.70;;
15553;SDS011;7878;44.632;10.942;2023-03-01T10:08:34;28.20;;;19.23;;
15553;SDS011;7878;44.632;10.942;2023-03-01T10:11:29;24.47;;;17.93;;
15553;SDS011;7878;44.632;10.942;2023-03-01T10:14:05;25.00;;;18.20;;
15553;SDS011;7878;44.632;10.942;2023-03-01T10:16:59;25.57;;;17.53;;
15553;SDS011;7878;44.632;10.942;2023-03-01T10:19:39;27.57;;;17.77;;
15553;SDS011;7878;44.632;10.942;2023-03-01T10:22:15;23.27;;;17.40;;
15553;SDS011;7878;44.632;10.942;2023-03-01T10:24:59;28.83;;;20.57;;
15553;SDS011;7878;44.632;10.942;2023-03-01T10:27:34;32.33;;;21.80;;
15553;SDS011;7878;44.632;10.942;2023-03-01T10:30:12;32.13;;;18.53;;
15553;SDS011;7878;44.632;10.942;2023-03-01T10:32:44;23.57;;;17.63;;
15553;SDS011;7878;44.632;10.942;2023-03-01T10:35:17;27.33;;;18.43;;
15553;SDS011;7878;44.632;10.942;2023-03-01T10:40:28;25.17;;;18.00;;
15553;SDS011;7878;44.632;10.942;2023-03-01T10:42:54;22.03;;;17.00;;
15553;SDS011;7878;44.632;10.942;2023-03-01T10:50:44;23.33;;;16.30;;
15553;SDS011;7878;44.632;10.942;2023-03-01T10:56:13;21.07;;;16.83;;
15553;SDS011;7878;44.632;10.942;2023-03-01T10:59:00;27.27;;;18.27;;
15553;SDS011;7878;44.632;10.942;2023-03-01T11:01:33;23.17;;;17.10;;
15553;SDS011;7878;44.632;10.942;2023-03-01T11:06:35;27.00;;;19.33;;
15553;SDS011;7878;44.632;10.942;2023-03-01T11:09:15;27.03;;;19.60;;
15553;SDS011;7878;44.632;10.942;2023-03-01T11:11:54;25.20;;;18.97;;
15553;SDS011;7878;44.632;10.942;2023-03-01T11:14:26;27.97;;;19.40;;
15553;SDS011;7878;44.632;10.942;2023-03-01T11:17:03;29.43;;;21.37;;
15553;SDS011;7878;44.632;10.942;2023-03-01T11:19:37;28.90;;;19.80;;
15553;SDS011;7878;44.632;10.942;2023-03-01T11:22:07;28.37;;;20.17;;
15553;SDS011;7878;44.632;10.942;2023-03-01T11:27:21;23.30;;;18.07;;
15553;SDS011;7878;44.632;10.942;2023-03-01T11:32:39;24.03;;;17.97;;
15553;SDS011;7878;44.632;10.942;2023-03-01T11:38:03;24.07;;;17.27;;
15553;SDS011;7878;44.632;10.942;2023-03-01T11:43:55;28.97;;;17.40;;
15553;SDS011;7878;44.632;10.942;2023-03-01T11:47:20;21.07;;;15.53;;
15553;SDS011;7878;44.632;10.942;2023-03-01T11:52:56;22.83;;;15.87;;
15553;SDS011;7878;44.632;10.942;2023-03-01T12:07:37;23.23;;;17.10;;
15553;SDS011;7878;44.632;10.942;2023-03-01T12:15:28;26.80;;;17.60;;
15553;SDS011;7878;44.632;10.942;2023-03-01T12:18:24;24.53;;;16.47;;
15553;SDS011;7878;44.632;10.942;2023-03-01T12:21:03;23.17;;;16.60;;
15553;SDS011;7878;44.632;10.942;2023-03-01T12:26:52;25.00;;;16.87;;
15553;SDS011;7878;44.632;10.942;2023-03-01T12:29:42;28.40;;;18.13;;
15553;SDS011;7878;44.632;10.942;2023-03-01T12:48:33;34.73;;;21.17;;
15553;SDS011;7878;44.632;10.942;2023-03-01T12:51:11;27.33;;;19.63;;
15553;SDS011;7878;44.632;10.942;2023-03-01T12:53:44;25.20;;;18.67;;
15553;SDS011;7878;44.632;10.942;2023-03-01T12:56:21;26.53;;;18.27;;
15553;SDS011;7878;44.632;10.942;2023-03-01T13:04:28;24.97;;;17.90;;
15553;SDS011;7878;44.632;10.942;2023-03-01T13:07:16;24.60;;;17.17;;
15553;SDS011;7878;44.632;10.942;2023-03-01T13:10:11;26.37;;;16.30;;
15553;SDS011;7878;44.632;10.942;2023-03-01T13:13:09;23.53;;;15.07;;
15553;SDS011;7878;44.632;10.942;2023-03-01T13:15:40;26.67;;;15.20;;
15553;SDS011;7878;44.632;10.942;2023-03-01T13:26:00;22.10;;;15.30;;
15553;SDS011;7878;44.632;10.942;2023-03-01T13:28:38;20.70;;;14.67;;
15553;SDS011;7878;44.632;10.942;2023-03-01T13:31:54;19.70;;;13.90;;
15553;SDS011;7878;44.632;10.942;2023-03-01T13:33:56;20.30;;;14.53;;
15553;SDS011;7878;44.632;10.942;2023-03-01T13:46:51;21.93;;;14.67;;
15553;SDS011;7878;44.632;10.942;2023-03-01T13:49:27;20.27;;;14.20;;
15553;SDS011;7878;44.632;10.942;2023-03-01T13:52:21;21.03;;;14.77;;
15553;SDS011;7878;44.632;10.942;2023-03-01T13:55:17;22.00;;;15.57;;
15553;SDS011;7878;44.632;10.942;2023-03-01T13:57:47;16.57;;;13.50;;
15553;SDS011;7878;44.632;10.942;2023-03-01T14:00:28;20.50;;;15.33;;
15553;SDS011;7878;44.632;10.942;2023-03-01T14:05:35;22.07;;;15.63;;
15553;SDS011;7878;44.632;10.942;2023-03-01T14:08:01;21.10;;;15.40;;
15553;SDS011;7878;44.632;10.942;2023-03-01T14:10:35;21.70;;;15.43;;
15553;SDS011;7878;44.632;10.942;2023-03-01T14:13:25;20.33;;;15.17;;
15553;SDS011;7878;44.632;10.942;2023-03-01T14:19:01;17.77;;;14.73;;
15553;SDS011;7878;44.632;10.942;2023-03-01T14:21:30;20.40;;;15.07;;
15553;SDS011;7878;44.632;10.942;2023-03-01T14:23:56;20.93;;;15.00;;
15553;SDS011;7878;44.632;10.942;2023-03-01T14:26:23;17.07;;;14.30;;
15553;SDS011;7878;44.632;10.942;2023-03-01T14:28:49;18.83;;;15.00;;
15553;SDS011;7878;44.632;10.942;2023-03-01T14:34:02;19.33;;;15.00;;
15553;SDS011;7878;44.632;10.942;2023-03-01T14:36:30;19.37;;;14.63;;
15553;SDS011;7878;44.632;10.942;2023-03-01T14:38:57;20.30;;;14.90;;
15553;SDS011;7878;44.632;10.942;2023-03-01T14:41:29;22.13;;;14.90;;
15553;SDS011;7878;44.632;10.942;2023-03-01T14:43:59;20.77;;;15.00;;
15553;SDS011;7878;44.632;10.942;2023-03-01T14:46:30;24.73;;;14.57;;
15553;SDS011;7878;44.632;10.942;2023-03-01T14:49:03;21.37;;;16.20;;
15553;SDS011;7878;44.632;10.942;2023-03-01T14:51:35;21.20;;;15.97;;
15553;SDS011;7878;44.632;10.942;2023-03-01T14:54:03;24.27;;;17.37;;
15553;SDS011;7878;44.632;10.942;2023-03-01T14:56:50;23.07;;;16.43;;
15553;SDS011;7878;44.632;10.942;2023-03-01T14:59:19;22.37;;;16.57;;
15553;SDS011;7878;44.632;10.942;2023-03-01T15:01:48;22.57;;;15.63;;
15553;SDS011;7878;44.632;10.942;2023-03-01T15:04:15;21.83;;;15.10;;
15553;SDS011;7878;44.632;10.942;2023-03-01T15:06:42;21.97;;;15.77;;
15553;SDS011;7878;44.632;10.942;2023-03-01T15:09:11;24.43;;;17.33;;
15553;SDS011;7878;44.632;10.942;2023-03-01T15:11:41;28.07;;;17.87;;
15553;SDS011;7878;44.632;10.942;2023-03-01T15:17:20;22.27;;;16.23;;
15553;SDS011;7878;44.632;10.942;2023-03-01T15:19:46;24.07;;;17.30;;
15553;SDS011;7878;44.632;10.942;2023-03-01T15:22:15;22.87;;;16.90;;
15553;SDS011;7878;44.632;10.942;2023-03-01T15:24:45;24.60;;;17.10;;
15553;SDS011;7878;44.632;10.942;2023-03-01T15:27:16;29.40;;;17.60;;
15553;SDS011;7878;44.632;10.942;2023-03-01T15:29:48;23.27;;;17.27;;
15553;SDS011;7878;44.632;10.942;2023-03-01T15:32:33;23.67;;;16.40;;
15553;SDS011;7878;44.632;10.942;2023-03-01T15:35:32;27.03;;;18.93;;
15553;SDS011;7878;44.632;10.942;2023-03-01T15:43:50;27.43;;;19.43;;
15553;SDS011;7878;44.632;10.942;2023-03-01T15:48:58;24.63;;;16.93;;
15553;SDS011;7878;44.632;10.942;2023-03-01T15:51:36;26.27;;;18.10;;
15553;SDS011;7878;44.632;10.942;2023-03-01T15:54:06;23.70;;;17.17;;
15553;SDS011;7878;44.632;10.942;2023-03-01T15:56:39;25.23;;;17.70;;
15553;SDS011;7878;44.632;10.942;2023-03-01T15:59:04;27.77;;;17.27;;
15553;SDS011;7878;44.632;10.942;2023-03-01T16:01:32;25.60;;;17.00;;
15553;SDS011;7878;44.632;10.942;2023-03-01T16:03:59;24.07;;;16.90;;
15553;SDS011;7878;44.632;10.942;2023-03-01T16:06:25;25.57;;;18.07;;
15553;SDS011;7878;44.632;10.942;2023-03-01T16:08:51;25.90;;;16.70;;
15553;SDS011;7878;44.632;10.942;2023-03-01T16:11:17;21.33;;;15.67;;
15553;SDS011;7878;44.632;10.942;2023-03-01T16:13:44;23.57;;;15.63;;
15553;SDS011;7878;44.632;10.942;2023-03-01T16:16:11;27.87;;;16.83;;
15553;SDS011;7878;44.632;10.942;2023-03-01T16:18:40;20.43;;;15.50;;
15553;SDS011;7878;44.632;10.942;2023-03-01T16:21:13;23.20;;;15.50;;
15553;SDS011;7878;44.632;10.942;2023-03-01T16:23:50;20.23;;;14.43;;
15553;SDS011;7878;44.632;10.942;2023-03-01T16:26:16;23.80;;;16.17;;
15553;SDS011;7878;44.632;10.942;2023-03-01T16:28:43;23.40;;;15.77;;
15553;SDS011;7878;44.632;10.942;2023-03-01T16:31:10;21.53;;;14.90;;
15553;SDS011;7878;44.632;10.942;2023-03-01T16:33:36;18.80;;;14.50;;
15553;SDS011;7878;44.632;10.942;2023-03-01T16:36:09;20.87;;;14.53;;
15553;SDS011;7878;44.632;10.942;2023-03-01T16:38:37;20.33;;;14.77;;
15553;SDS011;7878;44.632;10.942;2023-03-01T16:41:03;20.07;;;13.77;;
15553;SDS011;7878;44.632;10.942;2023-03-01T16:43:30;20.40;;;14.47;;